createdAt,value
2023-03-12T00:02:49.446Z,98795.08
2023-03-12T00:07:52.903Z,98789.59
2023-03-12T00:12:55.659Z,98786.21
2023-03-12T00:17:58.181Z,98773.74
2023-03-12T00:23:00.704Z,98774.73
2023-03-12T00:28:03.173Z,98767.08
2023-03-12T00:33:05.624Z,98767.86
2023-03-12T00:38:08.464Z,98765.41
2023-03-12T00:43:11.368Z,98758.94
2023-03-12T00:48:13.914Z,98753.67
2023-03-12T00:53:16.422Z,98749.36
2023-03-12T00:58:18.987Z,98745.02
2023-03-12T01:03:22.412Z,98749.62
2023-03-12T01:08:25.564Z,98750.42
2023-03-12T01:13:28.399Z,98741.70
2023-03-12T01:18:30.894Z,98737.55
2023-03-12T01:23:33.454Z,98733.39
2023-03-12T01:28:35.943Z,98734.17
2023-03-12T01:33:38.435Z,98735.87
2023-03-12T01:38:40.861Z,98731.64
2023-03-12T01:43:43.595Z,98721.98
2023-03-12T01:48:50.203Z,98715.48
2023-03-12T01:53:58.006Z,98712.77
2023-03-12T01:59:05.760Z,98708.20
2023-03-12T02:04:08.799Z,98708.66
2023-03-12T02:09:12.639Z,98712.37
2023-03-12T02:14:15.344Z,98714.30
2023-03-12T02:19:48.722Z,98720.61
2023-03-12T02:25:03.814Z,98721.67
2023-03-12T02:30:08.208Z,98727.73
2023-03-12T02:35:11.904Z,98735.01
2023-03-12T02:40:22.980Z,98736.69
2023-03-12T02:45:26.009Z,98727.59
2023-03-12T02:50:28.851Z,98726.76
2023-03-12T02:55:31.999Z,98738.16
2023-03-12T03:00:34.742Z,98736.69
2023-03-12T03:05:37.739Z,98737.38
2023-03-12T03:10:40.289Z,98749.44
2023-03-12T03:15:42.798Z,98758.23
2023-03-12T03:20:45.307Z,98758.05
2023-03-12T03:25:47.777Z,98755.45
2023-03-12T03:30:53.907Z,98766.62
2023-03-12T03:35:59.395Z,98778.45
2023-03-12T03:41:02.710Z,98777.38
2023-03-12T03:46:06.300Z,98775.40
2023-03-12T03:51:11.082Z,98774.31
2023-03-12T03:56:15.666Z,98776.14
2023-03-12T04:01:19.369Z,98783.45
2023-03-12T04:06:22.438Z,98791.64
2023-03-12T04:11:25.809Z,98794.13
2023-03-12T04:16:28.534Z,98800.16
2023-03-12T04:21:31.180Z,98805.58
2023-03-12T04:26:33.698Z,98814.17
2023-03-12T04:31:36.255Z,98817.55
2023-03-12T04:36:38.923Z,98816.33
2023-03-12T04:41:41.398Z,98826.73
2023-03-12T04:46:43.936Z,98829.13
2023-03-12T04:51:46.586Z,98833.22
2023-03-12T04:56:50.131Z,98837.15
2023-03-12T05:01:52.832Z,98838.22
2023-03-12T05:06:55.923Z,98839.55
2023-03-12T05:11:58.912Z,98844.02
2023-03-12T05:17:01.498Z,98844.35
2023-03-12T05:22:04.062Z,98845.54
2023-03-12T05:27:08.284Z,98853.79
2023-03-12T05:32:13.353Z,98852.15
2023-03-12T05:37:16.031Z,98862.91
2023-03-12T05:42:18.572Z,98871.11
2023-03-12T05:47:23.141Z,98883.06
2023-03-12T05:52:25.645Z,98884.39
2023-03-12T05:57:28.202Z,98895.15
2023-03-12T06:02:30.770Z,98905.12
2023-03-12T06:07:34.527Z,98903.56
2023-03-12T06:12:37.037Z,98904.38
2023-03-12T06:17:39.626Z,98914.05
2023-03-12T06:22:42.506Z,98918.80
2023-03-12T06:27:45.030Z,98927.45
2023-03-12T06:32:48.722Z,98934.77
2023-03-12T06:37:51.335Z,98944.80
2023-03-12T06:42:53.958Z,98956.98
2023-03-12T06:47:56.436Z,98960.73
2023-03-12T06:52:58.916Z,98966.34
2023-03-12T06:58:04.219Z,98971.98
2023-03-12T07:03:06.910Z,98983.07
2023-03-12T07:08:10.152Z,98990.05
2023-03-12T07:13:13.357Z,99000.95
2023-03-12T07:18:16.109Z,99000.92
2023-03-12T07:23:19.184Z,99007.61
2023-03-12T07:28:22.873Z,99013.79
2023-03-12T07:33:25.792Z,99019.40
2023-03-12T07:38:28.633Z,99018.94
2023-03-12T07:43:31.611Z,99029.30
2023-03-12T07:48:34.374Z,99023.86
2023-03-12T07:53:37.052Z,99026.27
2023-03-12T07:58:40.105Z,99037.16
2023-03-12T08:03:43.232Z,99047.25
2023-03-12T08:08:46.704Z,99048.48
2023-03-12T08:13:49.851Z,99055.63
2023-03-12T08:18:52.729Z,99060.58
2023-03-12T08:23:55.243Z,99064.72
2023-03-12T08:29:00.174Z,99071.75
2023-03-12T08:34:03.142Z,99068.48
2023-03-12T08:39:06.496Z,99068.71
2023-03-12T08:44:09.032Z,99089.38
2023-03-12T08:49:11.876Z,99097.64
2023-03-12T08:54:15.048Z,99095.88
2023-03-12T08:59:18.570Z,99110.17
2023-03-12T09:04:21.263Z,99105.98
2023-03-12T09:09:23.990Z,99109.81
2023-03-12T09:15:01.962Z,99118.03
2023-03-12T09:19:49.489Z,99115.10
2023-03-12T09:24:52.118Z,99126.99
2023-03-12T09:30:00.479Z,99131.24
2023-03-12T09:35:06.751Z,99145.17
2023-03-12T09:40:17.857Z,99147.83
2023-03-12T09:45:24.682Z,99153.27
2023-03-12T09:50:45.853Z,99154.93
2023-03-12T09:55:50.338Z,99166.69
2023-03-12T10:01:04.320Z,99168.55
2023-03-12T10:06:12.935Z,99167.54
2023-03-12T10:11:43.596Z,99170.81
2023-03-12T10:17:00.320Z,99173.58
2023-03-12T10:22:28.735Z,99178.48
2023-03-12T10:27:37.005Z,99204.34
2023-03-12T10:32:45.814Z,99235.39
2023-03-12T10:37:52.017Z,99265.23
2023-03-12T10:42:55.513Z,99287.98
2023-03-12T10:48:06.274Z,99281.23
2023-03-12T10:53:31.810Z,99273.69
2023-03-12T10:58:38.035Z,99266.63
2023-03-12T11:03:42.114Z,99269.46
2023-03-12T11:09:17.095Z,99271.69
2023-03-12T11:14:23.060Z,99278.73
2023-03-12T11:19:33.225Z,99285.27
2023-03-12T11:24:36.019Z,99282.39
2023-03-12T11:29:43.466Z,99294.21
2023-03-12T11:34:49.923Z,99311.71
2023-03-12T11:40:09.767Z,99326.40
2023-03-12T11:45:40.794Z,99328.45
2023-03-12T11:51:15.484Z,99332.69
2023-03-12T11:56:36.202Z,99332.39
2023-03-12T12:01:57.531Z,99326.66
2023-03-12T12:07:16.105Z,99330.88
2023-03-12T12:12:52.556Z,99334.20
2023-03-12T12:18:11.173Z,99338.55
2023-03-12T12:23:42.722Z,99348.34
2023-03-12T12:28:57.118Z,99358.51
2023-03-12T12:34:05.434Z,99364.26
2023-03-12T12:39:25.557Z,99367.50
2023-03-12T12:44:35.704Z,99373.58
2023-03-12T12:49:48.772Z,99372.15
2023-03-12T12:55:07.532Z,99375.31
2023-03-12T13:00:27.386Z,99381.19
2023-03-12T13:05:36.114Z,99383.70
2023-03-12T13:10:48.939Z,99390.48
2023-03-12T13:16:40.068Z,99404.64
2023-03-12T13:22:08.830Z,99409.36
2023-03-12T13:27:27.337Z,99411.31
2023-03-12T13:32:59.418Z,99416.45
2023-03-12T13:38:05.774Z,99423.63
2023-03-12T13:43:08.234Z,99416.88
2023-03-12T13:48:22.010Z,99422.52
2023-03-12T13:53:35.637Z,99424.06
2023-03-12T13:58:47.988Z,99436.04
2023-03-12T14:04:00.299Z,99444.13
2023-03-12T14:09:25.161Z,99447.23
2023-03-12T14:14:57.644Z,99454.39
2023-03-12T14:20:20.771Z,99457.86
2023-03-12T14:25:42.598Z,99459.23
2023-03-12T14:31:17.261Z,99462.73
2023-03-12T14:36:22.913Z,99458.02
2023-03-12T14:41:41.817Z,99460.52
2023-03-12T14:46:57.047Z,99459.34
2023-03-12T14:51:59.758Z,99465.07
2023-03-12T14:57:02.403Z,99461.79
2023-03-12T15:02:14.571Z,99463.20
2023-03-12T15:07:23.857Z,99466.24
2023-03-12T15:12:31.960Z,99467.30
2023-03-12T15:17:35.447Z,99469.79
2023-03-12T15:22:38.608Z,99474.58
2023-03-12T15:27:41.350Z,99476.39
2023-03-12T15:33:11.334Z,99478.59
2023-03-12T15:38:16.596Z,99476.48
2023-03-12T15:43:22.713Z,99472.20
2023-03-12T15:48:41.152Z,99471.64
2023-03-12T15:53:43.688Z,99475.36
2023-03-12T15:58:46.729Z,99474.80
2023-03-12T16:03:49.688Z,99475.55
2023-03-12T16:08:59.691Z,99471.29
2023-03-12T16:14:24.684Z,99474.93
2023-03-12T16:19:29.601Z,99477.66
2023-03-12T16:24:32.194Z,99480.20
2023-03-12T16:29:38.202Z,99486.54
2023-03-12T16:34:41.459Z,99485.13
2023-03-12T16:39:46.256Z,99488.32
2023-03-12T16:44:48.966Z,99496.73
2023-03-12T16:49:51.700Z,99499.43
2023-03-12T16:54:54.327Z,99508.67
2023-03-12T16:59:57.547Z,99516.45
2023-03-12T17:05:00.344Z,99523.05
2023-03-12T17:10:03.215Z,99531.73
2023-03-12T17:15:16.577Z,99538.95
2023-03-12T17:20:21.432Z,99551.88
2023-03-12T17:25:25.838Z,99552.39
2023-03-12T17:30:30.498Z,99549.61
2023-03-12T17:35:33.723Z,99537.84
2023-03-12T17:40:40.728Z,99532.11
2023-03-12T17:45:43.401Z,99530.72
2023-03-12T17:50:45.938Z,99532.34
2023-03-12T17:55:48.476Z,99532.88
2023-03-12T18:00:51.229Z,99532.76
2023-03-12T18:05:53.838Z,99538.52
2023-03-12T18:10:56.818Z,99543.95
2023-03-12T18:15:59.848Z,99554.06
2023-03-12T18:21:02.731Z,99562.51
2023-03-12T18:26:05.700Z,99572.04
2023-03-12T18:31:08.815Z,99568.77
2023-03-12T18:36:11.425Z,99565.37
2023-03-12T18:41:14.557Z,99569.85
2023-03-12T18:46:18.996Z,99576.91
2023-03-12T18:51:22.085Z,99576.75
2023-03-12T18:56:25.153Z,99577.68
2023-03-12T19:01:27.786Z,99583.11
2023-03-12T19:06:40.793Z,99587.80
2023-03-12T19:11:50.877Z,99588.17
2023-03-12T19:16:53.724Z,99594.05
2023-03-12T19:21:57.298Z,99597.80
2023-03-12T19:26:59.750Z,99602.01
2023-03-12T19:32:02.382Z,99602.63
2023-03-12T19:37:04.880Z,99599.13
2023-03-12T19:42:07.408Z,99598.63
2023-03-12T19:47:10.104Z,99604.13
2023-03-12T19:52:12.603Z,99603.31
2023-03-12T19:57:15.078Z,99603.18
2023-03-12T20:02:18.003Z,99595.59
2023-03-12T20:07:20.572Z,99585.44
2023-03-12T20:12:23.077Z,99581.33
2023-03-12T20:17:25.588Z,99579.09
2023-03-12T20:22:28.046Z,99573.30
2023-03-12T20:27:31.106Z,99567.66
2023-03-12T20:32:34.106Z,99566.13
2023-03-12T20:37:36.910Z,99563.60
2023-03-12T20:42:40.668Z,99565.96
2023-03-12T20:47:43.231Z,99576.29
2023-03-12T20:52:45.712Z,99579.58
2023-03-12T20:57:48.385Z,99583.46
2023-03-12T21:02:50.944Z,99585.70
2023-03-12T21:07:53.909Z,99583.61
2023-03-12T21:12:57.445Z,99577.13
2023-03-12T21:17:59.930Z,99562.38
2023-03-12T21:23:02.474Z,99551.54
2023-03-12T21:28:07.279Z,99550.29
2023-03-12T21:33:09.804Z,99550.67
2023-03-12T21:38:12.361Z,99540.44
2023-03-12T21:43:14.830Z,99536.26
2023-03-12T21:48:17.310Z,99523.35
2023-03-12T21:53:23.764Z,99514.30
2023-03-12T21:58:27.501Z,99507.07
2023-03-12T22:03:30.211Z,99496.14
2023-03-12T22:08:33.744Z,99490.13
2023-03-12T22:13:36.655Z,99486.15
2023-03-12T22:18:41.570Z,99484.44
2023-03-12T22:23:44.145Z,99481.34
2023-03-12T22:28:52.429Z,99481.67
2023-03-12T22:33:56.578Z,99484.27
2023-03-12T22:38:59.067Z,99487.04
2023-03-12T22:44:07.233Z,99480.70
2023-03-12T22:49:09.693Z,99489.93
2023-03-12T22:54:12.169Z,99491.45
2023-03-12T22:59:14.655Z,99479.92
2023-03-12T23:04:17.114Z,99472.94
2023-03-12T23:09:19.999Z,99479.59
2023-03-12T23:14:22.790Z,99475.60
2023-03-12T23:19:26.074Z,99467.52
2023-03-12T23:24:31.624Z,99464.75
2023-03-12T23:29:35.062Z,99463.64
2023-03-12T23:34:37.590Z,99460.77
2023-03-12T23:39:53.458Z,99460.13
2023-03-12T23:44:56.731Z,99467.14
2023-03-12T23:49:59.296Z,99467.69
2023-03-12T23:55:01.758Z,99460.30
